sensor_id;sensor_type;location;lat;lon;timestamp;temperature;humidity
52611;DHT22;38727;40.130;18.292;2024-02-21T04:45:24;7.50;77.80
52611;DHT22;38727;40.130;18.292;2024-02-21T07:15:34;10.50;79.10
52611;DHT22;38727;40.130;18.292;2024-02-21T07:19:10;10.70;79.40
52611;DHT22;38727;40.130;18.292;2024-02-21T07:59:55;13.40;78.50
52611;DHT22;38727;40.130;18.292;2024-02-21T08:03:31;13.60;78.10
52611;DHT22;38727;40.130;18.292;2024-02-21T08:24:46;14.50;76.10
52611;DHT22;38727;40.130;18.292;2024-02-21T08:32:32;14.80;75.30
52611;DHT22;38727;40.130;18.292;2024-02-21T08:44:42;15.20;73.50
52611;DHT22;38727;40.130;18.292;2024-02-21T08:53:24;15.10;73.20
52611;DHT22;38727;40.130;18.292;2024-02-21T10:17:33;16.70;61.10
52611;DHT22;38727;40.130;18.292;2024-02-21T10:21:28;16.80;63.10
52611;DHT22;38727;40.130;18.292;2024-02-21T11:02:42;19.80;49.70
52611;DHT22;38727;40.130;18.292;2024-02-21T11:06:42;19.20;49.70
52611;DHT22;38727;40.130;18.292;2024-02-21T11:13:41;18.80;51.40
52611;DHT22;38727;40.130;18.292;2024-02-21T11:20:00;18.10;50.90
52611;DHT22;38727;40.130;18.292;2024-02-21T11:27:33;18.80;51.20
52611;DHT22;38727;40.130;18.292;2024-02-21T11:31:17;19.60;49.20
52611;DHT22;38727;40.130;18.292;2024-02-21T11:34:22;20.30;46.40
52611;DHT22;38727;40.130;18.292;2024-02-21T12:46:31;23.00;36.90
52611;DHT22;38727;40.130;18.292;2024-02-21T12:49:01;23.00;36.60
52611;DHT22;38727;40.130;18.292;2024-02-21T12:51:56;23.10;36.20
52611;DHT22;38727;40.130;18.292;2024-02-21T12:54:26;23.20;36.40
52611;DHT22;38727;40.130;18.292;2024-02-21T12:56:57;23.30;35.80
52611;DHT22;38727;40.130;18.292;2024-02-21T12:59:50;23.50;35.60
52611;DHT22;38727;40.130;18.292;2024-02-21T13:02:22;23.70;35.10
52611;DHT22;38727;40.130;18.292;2024-02-21T13:04:52;23.70;34.80
52611;DHT22;38727;40.130;18.292;2024-02-21T13:07:24;23.80;35.10
52611;DHT22;38727;40.130;18.292;2024-02-21T13:09:55;23.80;35.30
52611;DHT22;38727;40.130;18.292;2024-02-21T13:12:25;23.90;35.20
52611;DHT22;38727;40.130;18.292;2024-02-21T13:14:56;24.00;35.40
52611;DHT22;38727;40.130;18.292;2024-02-21T13:17:29;24.10;34.70
52611;DHT22;38727;40.130;18.292;2024-02-21T13:20:00;24.00;34.20
52611;DHT22;38727;40.130;18.292;2024-02-21T13:22:30;23.80;33.90
52611;DHT22;38727;40.130;18.292;2024-02-21T13:25:01;23.80;34.10
52611;DHT22;38727;40.130;18.292;2024-02-21T13:27:32;23.70;34.30
52611;DHT22;38727;40.130;18.292;2024-02-21T13:30:03;23.80;34.30
52611;DHT22;38727;40.130;18.292;2024-02-21T13:32:36;23.90;33.70
52611;DHT22;38727;40.130;18.292;2024-02-21T13:35:08;24.10;33.20
52611;DHT22;38727;40.130;18.292;2024-02-21T13:37:40;24.20;32.90
52611;DHT22;38727;40.130;18.292;2024-02-21T13:40:11;24.30;32.90
52611;DHT22;38727;40.130;18.292;2024-02-21T13:42:42;24.30;32.60
52611;DHT22;38727;40.130;18.292;2024-02-21T13:45:15;24.40;32.10
52611;DHT22;38727;40.130;18.292;2024-02-21T13:47:47;24.30;32.40
52611;DHT22;38727;40.130;18.292;2024-02-21T13:50:19;24.40;32.30
52611;DHT22;38727;40.130;18.292;2024-02-21T13:52:56;24.50;31.90
52611;DHT22;38727;40.130;18.292;2024-02-21T13:55:27;24.60;31.40
52611;DHT22;38727;40.130;18.292;2024-02-21T13:57:58;24.60;30.90
52611;DHT22;38727;40.130;18.292;2024-02-21T14:00:30;24.50;30.60
52611;DHT22;38727;40.130;18.292;2024-02-21T14:03:05;24.30;31.60
52611;DHT22;38727;40.130;18.292;2024-02-21T14:05:36;24.40;31.60
52611;DHT22;38727;40.130;18.292;2024-02-21T14:08:08;24.40;31.90
52611;DHT22;38727;40.130;18.292;2024-02-21T14:10:38;24.60;31.50
52611;DHT22;38727;40.130;18.292;2024-02-21T14:13:09;24.70;31.00
52611;DHT22;38727;40.130;18.292;2024-02-21T14:15:43;24.80;30.80
52611;DHT22;38727;40.130;18.292;2024-02-21T14:18:16;24.90;30.70
52611;DHT22;38727;40.130;18.292;2024-02-21T14:20:48;24.80;30.40
52611;DHT22;38727;40.130;18.292;2024-02-21T14:23:18;24.70;30.80
52611;DHT22;38727;40.130;18.292;2024-02-21T14:25:50;24.80;30.80
52611;DHT22;38727;40.130;18.292;2024-02-21T14:28:21;24.90;30.50
52611;DHT22;38727;40.130;18.292;2024-02-21T14:30:55;24.90;30.70
52611;DHT22;38727;40.130;18.292;2024-02-21T14:33:27;24.80;30.30
52611;DHT22;38727;40.130;18.292;2024-02-21T14:35:57;24.80;30.90
52611;DHT22;38727;40.130;18.292;2024-02-21T14:38:33;25.20;31.00
52611;DHT22;38727;40.130;18.292;2024-02-21T14:41:06;25.20;30.60
52611;DHT22;38727;40.130;18.292;2024-02-21T14:43:36;25.30;30.90
52611;DHT22;38727;40.130;18.292;2024-02-21T14:46:07;25.50;30.80
52611;DHT22;38727;40.130;18.292;2024-02-21T14:48:41;25.60;30.60
52611;DHT22;38727;40.130;18.292;2024-02-21T14:51:14;25.90;29.90
52611;DHT22;38727;40.130;18.292;2024-02-21T14:53:45;26.60;29.30
52611;DHT22;38727;40.130;18.292;2024-02-21T14:56:16;27.50;28.60
52611;DHT22;38727;40.130;18.292;2024-02-21T14:58:47;28.60;27.20
52611;DHT22;38727;40.130;18.292;2024-02-21T15:01:17;29.80;25.70
52611;DHT22;38727;40.130;18.292;2024-02-21T15:03:50;30.80;24.50
52611;DHT22;38727;40.130;18.292;2024-02-21T15:06:20;31.70;23.80
52611;DHT22;38727;40.130;18.292;2024-02-21T15:08:51;32.30;23.10
52611;DHT22;38727;40.130;18.292;2024-02-21T15:11:23;32.80;22.80
52611;DHT22;38727;40.130;18.292;2024-02-21T15:13:54;33.20;22.70
52611;DHT22;38727;40.130;18.292;2024-02-21T15:16:25;33.50;22.70
52611;DHT22;38727;40.130;18.292;2024-02-21T15:18:57;33.70;22.80
52611;DHT22;38727;40.130;18.292;2024-02-21T15:21:28;33.70;22.60
52611;DHT22;38727;40.130;18.292;2024-02-21T15:23:58;33.60;22.80
52611;DHT22;38727;40.130;18.292;2024-02-21T15:26:29;33.80;22.60
52611;DHT22;38727;40.130;18.292;2024-02-21T15:29:01;34.10;22.30
52611;DHT22;38727;40.130;18.292;2024-02-21T15:31:31;34.30;21.40
52611;DHT22;38727;40.130;18.292;2024-02-21T15:34:03;34.50;21.30
52611;DHT22;38727;40.130;18.292;2024-02-21T15:36:35;34.60;21.30
52611;DHT22;38727;40.130;18.292;2024-02-21T15:39:06;34.50;21.60
52611;DHT22;38727;40.130;18.292;2024-02-21T15:41:39;34.40;22.00
52611;DHT22;38727;40.130;18.292;2024-02-21T15:44:10;34.30;22.10
52611;DHT22;38727;40.130;18.292;2024-02-21T15:46:40;33.80;22.60
52611;DHT22;38727;40.130;18.292;2024-02-21T15:49:16;33.50;22.80
52611;DHT22;38727;40.130;18.292;2024-02-21T15:51:47;33.20;23.10
52611;DHT22;38727;40.130;18.292;2024-02-21T15:54:16;32.60;23.20
52611;DHT22;38727;40.130;18.292;2024-02-21T15:56:47;32.10;23.70
52611;DHT22;38727;40.130;18.292;2024-02-21T15:59:18;31.50;24.00
52611;DHT22;38727;40.130;18.292;2024-02-21T16:01:48;30.90;24.30
52611;DHT22;38727;40.130;18.292;2024-02-21T16:04:22;30.10;25.10
52611;DHT22;38727;40.130;18.292;2024-02-21T16:06:52;28.80;26.40
52611;DHT22;38727;40.130;18.292;2024-02-21T16:09:23;27.40;28.10
52611;DHT22;38727;40.130;18.292;2024-02-21T16:11:53;26.50;29.40
52611;DHT22;38727;40.130;18.292;2024-02-21T16:14:24;25.80;30.40
52611;DHT22;38727;40.130;18.292;2024-02-21T16:16:56;25.10;31.20
52611;DHT22;38727;40.130;18.292;2024-02-21T16:19:29;23.90;32.60
52611;DHT22;38727;40.130;18.292;2024-02-21T16:22:00;22.80;34.10
52611;DHT22;38727;40.130;18.292;2024-02-21T16:24:34;21.90;35.70
52611;DHT22;38727;40.130;18.292;2024-02-21T16:27:04;21.20;37.10
52611;DHT22;38727;40.130;18.292;2024-02-21T16:29:38;20.60;38.10
52611;DHT22;38727;40.130;18.292;2024-02-21T16:32:08;20.10;39.20
52611;DHT22;38727;40.130;18.292;2024-02-21T16:34:40;19.70;40.10
52611;DHT22;38727;40.130;18.292;2024-02-21T16:37:11;19.30;41.00
52611;DHT22;38727;40.130;18.292;2024-02-21T16:39:42;19.00;41.90
52611;DHT22;38727;40.130;18.292;2024-02-21T16:42:12;18.80;42.60
52611;DHT22;38727;40.130;18.292;2024-02-21T16:44:43;18.50;43.20
52611;DHT22;38727;40.130;18.292;2024-02-21T16:47:13;18.30;43.80
52611;DHT22;38727;40.130;18.292;2024-02-21T16:49:46;18.10;44.40
52611;DHT22;38727;40.130;18.292;2024-02-21T16:52:18;17.80;45.10
52611;DHT22;38727;40.130;18.292;2024-02-21T16:54:48;17.80;45.70
52611;DHT22;38727;40.130;18.292;2024-02-21T16:57:19;17.60;46.20
52611;DHT22;38727;40.130;18.292;2024-02-21T16:59:50;17.40;46.70
52611;DHT22;38727;40.130;18.292;2024-02-21T17:02:21;17.30;47.30
52611;DHT22;38727;40.130;18.292;2024-02-21T17:04:55;17.20;47.70
52611;DHT22;38727;40.130;18.292;2024-02-21T17:07:30;17.00;48.00
52611;DHT22;38727;40.130;18.292;2024-02-21T17:10:00;16.80;48.50
52611;DHT22;38727;40.130;18.292;2024-02-21T17:12:30;16.70;48.80
52611;DHT22;38727;40.130;18.292;2024-02-21T17:15:01;16.60;49.20
52611;DHT22;38727;40.130;18.292;2024-02-21T17:17:31;16.40;49.60
52611;DHT22;38727;40.130;18.292;2024-02-21T17:20:05;16.30;50.00
52611;DHT22;38727;40.130;18.292;2024-02-21T17:22:37;16.30;50.20
52611;DHT22;38727;40.130;18.292;2024-02-21T17:25:08;16.20;50.50
52611;DHT22;38727;40.130;18.292;2024-02-21T17:27:40;16.10;50.80
52611;DHT22;38727;40.130;18.292;2024-02-21T17:30:11;16.00;51.10
52611;DHT22;38727;40.130;18.292;2024-02-21T17:32:42;16.00;51.40
52611;DHT22;38727;40.130;18.292;2024-02-21T17:35:15;15.80;51.70
52611;DHT22;38727;40.130;18.292;2024-02-21T17:37:46;15.80;52.00
52611;DHT22;38727;40.130;18.292;2024-02-21T17:40:17;15.70;52.20
52611;DHT22;38727;40.130;18.292;2024-02-21T17:42:47;15.60;52.50
52611;DHT22;38727;40.130;18.292;2024-02-21T17:45:19;15.30;52.90
52611;DHT22;38727;40.130;18.292;2024-02-21T17:47:50;15.20;53.30
52611;DHT22;38727;40.130;18.292;2024-02-21T17:50:22;14.90;53.90
52611;DHT22;38727;40.130;18.292;2024-02-21T17:52:53;14.80;54.50
52611;DHT22;38727;40.130;18.292;2024-02-21T17:55:25;14.60;54.90
52611;DHT22;38727;40.130;18.292;2024-02-21T17:57:56;14.40;55.20
52611;DHT22;38727;40.130;18.292;2024-02-21T18:00:27;14.30;55.30
52611;DHT22;38727;40.130;18.292;2024-02-21T18:03:00;14.30;55.70
52611;DHT22;38727;40.130;18.292;2024-02-21T18:05:33;14.10;56.00
52611;DHT22;38727;40.130;18.292;2024-02-21T18:08:04;14.00;56.40
52611;DHT22;38727;40.130;18.292;2024-02-21T18:10:35;13.90;56.80
52611;DHT22;38727;40.130;18.292;2024-02-21T18:13:06;13.80;57.20
52611;DHT22;38727;40.130;18.292;2024-02-21T18:15:39;13.80;57.40
52611;DHT22;38727;40.130;18.292;2024-02-21T18:18:10;13.60;57.70
52611;DHT22;38727;40.130;18.292;2024-02-21T18:20:42;13.60;58.00
52611;DHT22;38727;40.130;18.292;2024-02-21T18:23:13;13.50;58.20
52611;DHT22;38727;40.130;18.292;2024-02-21T18:25:43;13.40;58.50
52611;DHT22;38727;40.130;18.292;2024-02-21T18:28:14;13.30;58.60
52611;DHT22;38727;40.130;18.292;2024-02-21T18:30:45;13.30;59.00
52611;DHT22;38727;40.130;18.292;2024-02-21T18:33:16;13.20;59.30
52611;DHT22;38727;40.130;18.292;2024-02-21T18:35:49;13.20;59.50
52611;DHT22;38727;40.130;18.292;2024-02-21T18:38:19;13.10;59.60
52611;DHT22;38727;40.130;18.292;2024-02-21T18:40:50;13.10;59.70
52611;DHT22;38727;40.130;18.292;2024-02-21T18:43:21;13.00;60.00
52611;DHT22;38727;40.130;18.292;2024-02-21T18:45:51;12.90;60.20
52611;DHT22;38727;40.130;18.292;2024-02-21T18:48:21;12.90;60.20
52611;DHT22;38727;40.130;18.292;2024-02-21T18:50:54;12.80;60.30
52611;DHT22;38727;40.130;18.292;2024-02-21T18:53:25;12.80;60.40
52611;DHT22;38727;40.130;18.292;2024-02-21T18:55:55;12.70;60.50
52611;DHT22;38727;40.130;18.292;2024-02-21T18:58:27;12.60;60.90
52611;DHT22;38727;40.130;18.292;2024-02-21T19:00:58;12.60;61.10
52611;DHT22;38727;40.130;18.292;2024-02-21T19:03:29;12.50;61.40
52611;DHT22;38727;40.130;18.292;2024-02-21T19:06:01;12.50;61.50
52611;DHT22;38727;40.130;18.292;2024-02-21T19:08:32;12.50;61.50
52611;DHT22;38727;40.130;18.292;2024-02-21T19:11:02;12.40;61.60
52611;DHT22;38727;40.130;18.292;2024-02-21T19:13:33;12.30;61.90
52611;DHT22;38727;40.130;18.292;2024-02-21T19:16:03;12.30;62.00
52611;DHT22;38727;40.130;18.292;2024-02-21T19:18:34;12.30;62.10
52611;DHT22;38727;40.130;18.292;2024-02-21T19:21:07;12.20;62.30
52611;DHT22;38727;40.130;18.292;2024-02-21T19:23:37;12.10;62.60
52611;DHT22;38727;40.130;18.292;2024-02-21T19:26:09;12.00;62.70
52611;DHT22;38727;40.130;18.292;2024-02-21T19:28:39;11.90;62.80
52611;DHT22;38727;40.130;18.292;2024-02-21T19:31:10;11.80;62.90
52611;DHT22;38727;40.130;18.292;2024-02-21T19:33:42;11.80;63.00
52611;DHT22;38727;40.130;18.292;2024-02-21T19:36:14;11.70;63.20
52611;DHT22;38727;40.130;18.292;2024-02-21T19:38:44;11.60;63.50
52611;DHT22;38727;40.130;18.292;2024-02-21T19:41:15;11.60;63.80
52611;DHT22;38727;40.130;18.292;2024-02-21T19:43:45;11.50;64.00
52611;DHT22;38727;40.130;18.292;2024-02-21T19:46:18;11.50;64.20
52611;DHT22;38727;40.130;18.292;2024-02-21T19:48:49;11.50;64.00
52611;DHT22;38727;40.130;18.292;2024-02-21T19:51:21;11.40;64.00
52611;DHT22;38727;40.130;18.292;2024-02-21T19:53:53;11.40;64.00
52611;DHT22;38727;40.130;18.292;2024-02-21T19:56:31;11.30;64.10
52611;DHT22;38727;40.130;18.292;2024-02-21T19:59:02;11.30;64.30
52611;DHT22;38727;40.130;18.292;2024-02-21T20:01:34;11.30;64.30
52611;DHT22;38727;40.130;18.292;2024-02-21T20:04:05;11.20;64.50
52611;DHT22;38727;40.130;18.292;2024-02-21T20:06:37;11.20;64.70
52611;DHT22;38727;40.130;18.292;2024-02-21T20:09:09;11.10;64.80
52611;DHT22;38727;40.130;18.292;2024-02-21T20:11:39;11.00;65.00
52611;DHT22;38727;40.130;18.292;2024-02-21T20:14:10;10.90;65.10
52611;DHT22;38727;40.130;18.292;2024-02-21T20:16:44;10.80;65.20
52611;DHT22;38727;40.130;18.292;2024-02-21T20:19:15;10.80;65.40
52611;DHT22;38727;40.130;18.292;2024-02-21T20:21:47;10.80;65.70
52611;DHT22;38727;40.130;18.292;2024-02-21T20:24:18;10.70;65.90
52611;DHT22;38727;40.130;18.292;2024-02-21T20:26:51;10.70;65.90
52611;DHT22;38727;40.130;18.292;2024-02-21T20:29:22;10.70;66.20
52611;DHT22;38727;40.130;18.292;2024-02-21T20:31:53;10.70;66.20
52611;DHT22;38727;40.130;18.292;2024-02-21T20:34:30;10.70;66.10
52611;DHT22;38727;40.130;18.292;2024-02-21T20:37:02;10.70;66.20
52611;DHT22;38727;40.130;18.292;2024-02-21T20:39:33;10.60;66.10
52611;DHT22;38727;40.130;18.292;2024-02-21T20:42:05;10.60;65.90
52611;DHT22;38727;40.130;18.292;2024-02-21T20:44:35;10.50;65.90
52611;DHT22;38727;40.130;18.292;2024-02-21T20:47:06;10.40;66.00
52611;DHT22;38727;40.130;18.292;2024-02-21T20:49:37;10.40;66.20
52611;DHT22;38727;40.130;18.292;2024-02-21T20:52:09;10.30;66.40
52611;DHT22;38727;40.130;18.292;2024-02-21T20:54:40;10.30;66.60
52611;DHT22;38727;40.130;18.292;2024-02-21T20:57:16;10.20;66.60
52611;DHT22;38727;40.130;18.292;2024-02-21T20:59:46;10.10;66.70
52611;DHT22;38727;40.130;18.292;2024-02-21T21:02:18;10.10;66.90
52611;DHT22;38727;40.130;18.292;2024-02-21T21:04:49;10.10;67.00
52611;DHT22;38727;40.130;18.292;2024-02-21T21:07:21;10.10;67.00
52611;DHT22;38727;40.130;18.292;2024-02-21T21:09:52;10.00;67.00
52611;DHT22;38727;40.130;18.292;2024-02-21T21:12:23;10.10;67.10
52611;DHT22;38727;40.130;18.292;2024-02-21T21:14:54;10.00;67.10
52611;DHT22;38727;40.130;18.292;2024-02-21T21:17:25;9.90;67.20
52611;DHT22;38727;40.130;18.292;2024-02-21T21:19:55;9.80;67.30
52611;DHT22;38727;40.130;18.292;2024-02-21T21:22:30;9.80;67.50
52611;DHT22;38727;40.130;18.292;2024-02-21T21:25:00;9.80;67.60
52611;DHT22;38727;40.130;18.292;2024-02-21T21:27:32;9.80;67.70
52611;DHT22;38727;40.130;18.292;2024-02-21T21:30:05;9.80;67.60
52611;DHT22;38727;40.130;18.292;2024-02-21T21:32:36;9.80;67.70
52611;DHT22;38727;40.130;18.292;2024-02-21T21:35:08;9.80;67.70
52611;DHT22;38727;40.130;18.292;2024-02-21T21:37:40;9.80;67.80
52611;DHT22;38727;40.130;18.292;2024-02-21T21:40:11;9.80;67.70
52611;DHT22;38727;40.130;18.292;2024-02-21T21:42:43;9.80;67.70
52611;DHT22;38727;40.130;18.292;2024-02-21T21:45:14;9.80;67.80
52611;DHT22;38727;40.130;18.292;2024-02-21T21:47:45;9.80;67.90
52611;DHT22;38727;40.130;18.292;2024-02-21T21:50:20;9.90;68.00
52611;DHT22;38727;40.130;18.292;2024-02-21T21:52:53;9.90;68.10
52611;DHT22;38727;40.130;18.292;2024-02-21T21:55:23;9.90;68.10
52611;DHT22;38727;40.130;18.292;2024-02-21T21:57:57;9.80;68.20
52611;DHT22;38727;40.130;18.292;2024-02-21T22:00:26;9.80;68.30
52611;DHT22;38727;40.130;18.292;2024-02-21T22:02:57;9.80;68.30
52611;DHT22;38727;40.130;18.292;2024-02-21T22:05:28;9.70;68.30
52611;DHT22;38727;40.130;18.292;2024-02-21T22:08:00;9.60;68.40
52611;DHT22;38727;40.130;18.292;2024-02-21T22:10:31;9.50;68.40
52611;DHT22;38727;40.130;18.292;2024-02-21T22:13:02;9.50;68.30
52611;DHT22;38727;40.130;18.292;2024-02-21T22:15:33;9.40;68.30
52611;DHT22;38727;40.130;18.292;2024-02-21T22:18:04;9.30;68.60
52611;DHT22;38727;40.130;18.292;2024-02-21T22:20:35;9.30;68.60
52611;DHT22;38727;40.130;18.292;2024-02-21T22:23:08;9.30;68.50
52611;DHT22;38727;40.130;18.292;2024-02-21T22:25:39;9.30;68.50
52611;DHT22;38727;40.130;18.292;2024-02-21T22:28:11;9.20;68.80
52611;DHT22;38727;40.130;18.292;2024-02-21T22:30:41;9.30;69.00
52611;DHT22;38727;40.130;18.292;2024-02-21T22:33:12;9.20;68.90
52611;DHT22;38727;40.130;18.292;2024-02-21T22:35:43;9.10;68.90
52611;DHT22;38727;40.130;18.292;2024-02-21T22:38:15;9.20;69.10
52611;DHT22;38727;40.130;18.292;2024-02-21T22:40:46;9.20;69.30
52611;DHT22;38727;40.130;18.292;2024-02-21T22:43:17;9.20;69.20
52611;DHT22;38727;40.130;18.292;2024-02-21T22:45:47;9.20;69.30
52611;DHT22;38727;40.130;18.292;2024-02-21T22:48:18;9.20;69.30
52611;DHT22;38727;40.130;18.292;2024-02-21T22:50:49;9.10;69.40
52611;DHT22;38727;40.130;18.292;2024-02-21T22:53:21;9.20;69.10
52611;DHT22;38727;40.130;18.292;2024-02-21T22:55:51;9.10;68.90
52611;DHT22;38727;40.130;18.292;2024-02-21T22:58:21;9.00;68.90
52611;DHT22;38727;40.130;18.292;2024-02-21T23:00:52;9.00;69.00
52611;DHT22;38727;40.130;18.292;2024-02-21T23:03:25;9.00;68.90
52611;DHT22;38727;40.130;18.292;2024-02-21T23:05:55;8.90;68.80
52611;DHT22;38727;40.130;18.292;2024-02-21T23:08:28;8.90;69.00
52611;DHT22;38727;40.130;18.292;2024-02-21T23:10:59;8.90;69.20
52611;DHT22;38727;40.130;18.292;2024-02-21T23:13:29;9.00;69.30
52611;DHT22;38727;40.130;18.292;2024-02-21T23:16:01;9.00;69.10
52611;DHT22;38727;40.130;18.292;2024-02-21T23:18:32;8.90;69.00
52611;DHT22;38727;40.130;18.292;2024-02-21T23:21:09;8.90;69.20
52611;DHT22;38727;40.130;18.292;2024-02-21T23:23:41;8.80;69.30
52611;DHT22;38727;40.130;18.292;2024-02-21T23:26:11;8.80;69.30
52611;DHT22;38727;40.130;18.292;2024-02-21T23:28:42;8.80;69.20
52611;DHT22;38727;40.130;18.292;2024-02-21T23:31:12;8.80;69.30
52611;DHT22;38727;40.130;18.292;2024-02-21T23:33:43;8.70;69.30
52611;DHT22;38727;40.130;18.292;2024-02-21T23:36:14;8.60;69.20
52611;DHT22;38727;40.130;18.292;2024-02-21T23:38:46;8.60;69.30
52611;DHT22;38727;40.130;18.292;2024-02-21T23:41:17;8.50;69.50
52611;DHT22;38727;40.130;18.292;2024-02-21T23:43:47;8.50;69.60
52611;DHT22;38727;40.130;18.292;2024-02-21T23:46:18;8.40;69.80
52611;DHT22;38727;40.130;18.292;2024-02-21T23:48:49;8.50;70.00
52611;DHT22;38727;40.130;18.292;2024-02-21T23:51:20;8.50;70.10
52611;DHT22;38727;40.130;18.292;2024-02-21T23:53:53;8.40;70.10
52611;DHT22;38727;40.130;18.292;2024-02-21T23:56:24;8.40;70.20
52611;DHT22;38727;40.130;18.292;2024-02-21T23:58:56;8.40;70.10
